• Join FlightAware (Why Join?)
  • Login
  • US Flag 
10:17PM EDT


 

Airport Tracker/Info


-or-


 

Live Flight TrackerFlight Track Log ✈ N1259W ✈ 17-Mar-2013 ✈ KICT - KICT

Flight Track Log - Related Links

Times and Time Zones

All times are in EDT time to prevent confusion due to time zone crossing. See the N1259W flight status page for this flight to view local times or setup timezone preferences in your user account.

Time Position Orientation Groundspeed Altitude Reporting Facility
EDT Latitude Longitude Course Direction KTS MPH feet Rate Location/Type
04:25PM 37.6606 -97.4194 326° Northwest 117 135 1,700  Level Kansas City Center
04:26PM 37.6950 -97.4483 326° Northwest 176 203 2,900 1,140 Climbing Kansas City Center
04:27PM 37.6972 -97.4789 275° West 185 213 3,700 1,680 Climbing Kansas City Center
04:27PM 37.7000 -97.5217 275° West 180 207 4,800 1,440 Climbing Kansas City Center
04:28PM 37.7014 -97.5414 275° West 182 209 5,200 1,320 Climbing Kansas City Center
04:28PM 37.7039 -97.5819 274° West 179 206 6,200 1,800 Climbing Kansas City Center
04:29PM 37.7053 -97.6153 273° West 177 204 7,100 1,560 Climbing Kansas City Center
04:29PM 37.7075 -97.6422 276° West 175 201 7,800 1,740 Climbing Kansas City Center
04:30PM 37.7089 -97.6764 273° West 175 201 8,900 1,620 Climbing Kansas City Center
04:31PM 37.7139 -97.7336 276° West 168 193 10,500 1,320 Climbing Kansas City Center
04:32PM 37.7183 -97.7903 276° West 162 186 11,700 720 Climbing Kansas City Center
04:33PM 37.7231 -97.8561 275° West 180 207 12,000 120 Climbing Kansas City Center
04:34PM 37.7275 -97.9356 274° West 215 247 12,000  Level Kansas City Center
04:35PM 37.7328 -98.0147 275° West 224 258 12,000 -240 Level Kansas City Center
04:36PM 37.7233 -98.0861 261° West 224 258 11,600 -840 Descending Kansas City Center
04:37PM 37.6664 -98.0528 155° Southeast 271 312 10,500 -1,440 Descending Kansas City Center
04:38PM 37.6694 -97.9967 86° East 276 318 9,500 -1,800 Descending Kansas City Center
04:38PM 37.6736 -97.9478 84° East 266 306 8,400 -1,800 Descending Kansas City Center
04:39PM 37.6653 -97.9075 105° East 241 277 7,500 -1,680 Descending Kansas City Center
04:39PM 37.6508 -97.8772 121° Southeast 236 272 6,700 -2,100 Descending Kansas City Center
04:40PM 37.6292 -97.8364 124° Southeast 217 250 5,400 -1,980 Descending Kansas City Center
04:40PM 37.6192 -97.8114 117° Southeast 226 260 4,700 -1,920 Descending Kansas City Center
04:41PM 37.5981 -97.7722 124° Southeast 216 249 3,500 -1,560 Descending Kansas City Center
04:41PM 37.5869 -97.7481 120° Southeast 220 253 3,100 -360 Descending Kansas City Center
04:42PM 37.5467 -97.6769 126° Southeast 214 246 3,000 -60 Descending Kansas City Center
04:43PM 37.5144 -97.6186 125° Southeast 208 239 3,000  Level Kansas City Center
04:44PM 37.4944 -97.5453 109° East 198 228 3,100  Climbing Kansas City Center
04:45PM 37.5189 -97.4958 58° Northeast 207 238 3,100  Level Kansas City Center
04:46PM 37.5625 -97.4631 31° Northeast 196 226 3,100 -420 Level Kansas City Center
04:47PM 37.6006 -97.4453 20° North 173 199 2,300 -780 Descending Kansas City Center
04:48PM 37.6308 -97.4317 20° North 143 165 1,600 -720 Descending Kansas City Center
04:51PM 37.6363 -97.4227 122° Southeast  Level FlightAware Approximate
04:58PM 37.6333 -97.4167 122° Southeast  Level FlightAware Approximate
04:59PM 37.6499 -97.4331 122° Southeast  Level Estimated
05:00PM 37.6499 -97.4331 122° Southeast  Level Estimated
05:01PM 37.6499 -97.4331 122° Southeast  Level Estimated